sensor_id;sensor_type;location;lat;lon;timestamp;pressure;altitude;pressure_sealevel;temperature;humidity
28921;BME280;16035;53.594;9.952;2024-02-26T00:00:40;100293.75;;;5.35;77.75
28921;BME280;16035;53.594;9.952;2024-02-26T00:02:40;100292.81;;;5.29;77.70
28921;BME280;16035;53.594;9.952;2024-02-26T00:04:41;100303.84;;;5.27;77.70
28921;BME280;16035;53.594;9.952;2024-02-26T00:06:42;100290.50;;;5.21;78.00
28921;BME280;16035;53.594;9.952;2024-02-26T00:08:43;100290.97;;;5.18;77.83
28921;BME280;16035;53.594;9.952;2024-02-26T00:10:43;100298.22;;;5.17;78.05
28921;BME280;16035;53.594;9.952;2024-02-26T00:12:44;100303.28;;;5.14;77.35
28921;BME280;16035;53.594;9.952;2024-02-26T00:14:44;100302.94;;;5.10;77.99
28921;BME280;16035;53.594;9.952;2024-02-26T00:16:46;100295.31;;;5.07;77.77
28921;BME280;16035;53.594;9.952;2024-02-26T00:18:46;100306.22;;;5.00;77.96
28921;BME280;16035;53.594;9.952;2024-02-26T00:20:47;100295.91;;;4.97;78.21
28921;BME280;16035;53.594;9.952;2024-02-26T00:22:47;100298.25;;;4.94;77.53
28921;BME280;16035;53.594;9.952;2024-02-26T00:24:47;100295.78;;;4.92;77.66
28921;BME280;16035;53.594;9.952;2024-02-26T00:26:47;100296.16;;;4.84;77.67
28921;BME280;16035;53.594;9.952;2024-02-26T00:28:53;100300.34;;;4.80;77.96
28921;BME280;16035;53.594;9.952;2024-02-26T00:30:53;100304.31;;;4.77;78.18
28921;BME280;16035;53.594;9.952;2024-02-26T00:32:56;100306.44;;;4.75;77.87
28921;BME280;16035;53.594;9.952;2024-02-26T00:34:56;100296.13;;;4.72;77.91
28921;BME280;16035;53.594;9.952;2024-02-26T00:36:56;100295.56;;;4.70;78.40
28921;BME280;16035;53.594;9.952;2024-02-26T00:38:57;100298.94;;;4.66;78.35
28921;BME280;16035;53.594;9.952;2024-02-26T00:40:57;100295.53;;;4.59;77.96
28921;BME280;16035;53.594;9.952;2024-02-26T00:42:57;100290.63;;;4.55;78.31
28921;BME280;16035;53.594;9.952;2024-02-26T00:44:58;100294.34;;;4.54;77.70
28921;BME280;16035;53.594;9.952;2024-02-26T00:46:58;100297.53;;;4.51;77.81
28921;BME280;16035;53.594;9.952;2024-02-26T00:48:59;100299.63;;;4.49;78.19
28921;BME280;16035;53.594;9.952;2024-02-26T00:51:00;100303.94;;;4.50;78.10
28921;BME280;16035;53.594;9.952;2024-02-26T00:53:01;100304.19;;;4.49;78.23
28921;BME280;16035;53.594;9.952;2024-02-26T00:55:03;100304.44;;;4.47;77.73
28921;BME280;16035;53.594;9.952;2024-02-26T00:57:03;100303.00;;;4.45;77.62
28921;BME280;16035;53.594;9.952;2024-02-26T00:59:03;100309.53;;;4.37;77.54
28921;BME280;16035;53.594;9.952;2024-02-26T01:01:04;100303.56;;;4.35;77.91
28921;BME280;16035;53.594;9.952;2024-02-26T01:03:04;100305.09;;;4.31;77.89
28921;BME280;16035;53.594;9.952;2024-02-26T01:05:05;100297.00;;;4.31;77.84
28921;BME280;16035;53.594;9.952;2024-02-26T01:07:06;100304.72;;;4.27;78.55
28921;BME280;16035;53.594;9.952;2024-02-26T01:09:06;100300.03;;;4.23;78.02
28921;BME280;16035;53.594;9.952;2024-02-26T01:11:07;100302.16;;;4.21;78.52
28921;BME280;16035;53.594;9.952;2024-02-26T01:13:08;100299.09;;;4.17;78.32
28921;BME280;16035;53.594;9.952;2024-02-26T01:15:08;100301.19;;;4.15;77.71
28921;BME280;16035;53.594;9.952;2024-02-26T01:17:08;100305.97;;;4.13;77.97
28921;BME280;16035;53.594;9.952;2024-02-26T01:19:09;100309.94;;;4.11;78.06
28921;BME280;16035;53.594;9.952;2024-02-26T01:21:09;100311.47;;;4.07;78.44
28921;BME280;16035;53.594;9.952;2024-02-26T01:23:09;100316.00;;;4.06;78.48
28921;BME280;16035;53.594;9.952;2024-02-26T01:25:10;100312.97;;;4.02;78.03
28921;BME280;16035;53.594;9.952;2024-02-26T01:27:10;100317.72;;;4.00;78.29
28921;BME280;16035;53.594;9.952;2024-02-26T01:29:11;100325.22;;;3.98;78.06
28921;BME280;16035;53.594;9.952;2024-02-26T01:31:11;100316.53;;;3.96;77.72
28921;BME280;16035;53.594;9.952;2024-02-26T01:33:11;100314.91;;;3.95;77.94
28921;BME280;16035;53.594;9.952;2024-02-26T01:35:12;100319.91;;;3.92;78.36
28921;BME280;16035;53.594;9.952;2024-02-26T01:37:12;100319.91;;;3.92;78.60
28921;BME280;16035;53.594;9.952;2024-02-26T01:39:12;100315.34;;;3.92;78.54
28921;BME280;16035;53.594;9.952;2024-02-26T01:41:15;100312.09;;;3.90;77.92
28921;BME280;16035;53.594;9.952;2024-02-26T01:43:16;100309.16;;;3.92;77.76
28921;BME280;16035;53.594;9.952;2024-02-26T01:45:17;100309.41;;;3.90;78.47
28921;BME280;16035;53.594;9.952;2024-02-26T01:47:24;100316.28;;;3.86;78.45
28921;BME280;16035;53.594;9.952;2024-02-26T01:49:25;100315.69;;;3.84;78.59
28921;BME280;16035;53.594;9.952;2024-02-26T01:51:26;100318.00;;;3.80;78.53
28921;BME280;16035;53.594;9.952;2024-02-26T01:53:26;100314.72;;;3.78;78.51
28921;BME280;16035;53.594;9.952;2024-02-26T01:55:27;100314.94;;;3.77;78.30
28921;BME280;16035;53.594;9.952;2024-02-26T01:57:28;100323.38;;;3.80;78.33
28921;BME280;16035;53.594;9.952;2024-02-26T01:59:28;100324.66;;;3.78;78.67
28921;BME280;16035;53.594;9.952;2024-02-26T02:01:30;100326.28;;;3.79;78.09
28921;BME280;16035;53.594;9.952;2024-02-26T02:03:31;100334.81;;;3.76;78.15
28921;BME280;16035;53.594;9.952;2024-02-26T02:05:32;100330.25;;;3.76;78.46
28921;BME280;16035;53.594;9.952;2024-02-26T02:07:34;100330.47;;;3.75;78.38
28921;BME280;16035;53.594;9.952;2024-02-26T02:09:36;100331.53;;;3.74;78.06
28921;BME280;16035;53.594;9.952;2024-02-26T02:11:36;100327.44;;;3.71;78.37
28921;BME280;16035;53.594;9.952;2024-02-26T02:13:37;100322.25;;;3.70;78.32
28921;BME280;16035;53.594;9.952;2024-02-26T02:15:38;100321.69;;;3.68;78.22
28921;BME280;16035;53.594;9.952;2024-02-26T02:17:38;100321.06;;;3.66;78.00
28921;BME280;16035;53.594;9.952;2024-02-26T02:19:38;100313.47;;;3.63;78.54
28921;BME280;16035;53.594;9.952;2024-02-26T02:21:39;100316.38;;;3.61;78.29
28921;BME280;16035;53.594;9.952;2024-02-26T02:23:39;100315.19;;;3.57;78.39
28921;BME280;16035;53.594;9.952;2024-02-26T02:25:40;100322.44;;;3.57;78.22
28921;BME280;16035;53.594;9.952;2024-02-26T02:27:42;100316.03;;;3.58;78.65
28921;BME280;16035;53.594;9.952;2024-02-26T02:29:43;100317.88;;;3.57;78.29
28921;BME280;16035;53.594;9.952;2024-02-26T02:31:43;100318.34;;;3.54;78.46
28921;BME280;16035;53.594;9.952;2024-02-26T02:33:44;100325.78;;;3.52;78.58
28921;BME280;16035;53.594;9.952;2024-02-26T02:35:44;100319.84;;;3.50;78.01
28921;BME280;16035;53.594;9.952;2024-02-26T02:37:46;100327.91;;;3.50;78.74
28921;BME280;16035;53.594;9.952;2024-02-26T02:39:46;100327.06;;;3.49;78.51
28921;BME280;16035;53.594;9.952;2024-02-26T02:41:46;100328.56;;;3.45;78.63
28921;BME280;16035;53.594;9.952;2024-02-26T02:43:47;100335.56;;;3.46;78.28
28921;BME280;16035;53.594;9.952;2024-02-26T02:45:47;100344.69;;;3.45;78.36
28921;BME280;16035;53.594;9.952;2024-02-26T02:47:47;100337.44;;;3.46;78.40
28921;BME280;16035;53.594;9.952;2024-02-26T02:49:48;100335.66;;;3.40;78.28
28921;BME280;16035;53.594;9.952;2024-02-26T02:51:48;100335.06;;;3.38;78.21
28921;BME280;16035;53.594;9.952;2024-02-26T02:53:48;100346.22;;;3.35;78.35
28921;BME280;16035;53.594;9.952;2024-02-26T02:55:49;100346.47;;;3.33;78.24
28921;BME280;16035;53.594;9.952;2024-02-26T02:57:49;100345.88;;;3.31;78.52
28921;BME280;16035;53.594;9.952;2024-02-26T02:59:49;100337.22;;;3.29;78.51
28921;BME280;16035;53.594;9.952;2024-02-26T03:01:50;100336.47;;;3.22;78.85
28921;BME280;16035;53.594;9.952;2024-02-26T03:03:50;100334.38;;;3.24;78.70
28921;BME280;16035;53.594;9.952;2024-02-26T03:05:51;100342.66;;;3.22;78.74
28921;BME280;16035;53.594;9.952;2024-02-26T03:07:51;100340.78;;;3.23;78.91
28921;BME280;16035;53.594;9.952;2024-02-26T03:09:52;100340.56;;;3.24;78.58
28921;BME280;16035;53.594;9.952;2024-02-26T03:11:53;100355.84;;;3.24;78.42
28921;BME280;16035;53.594;9.952;2024-02-26T03:13:53;100349.66;;;3.23;78.25
28921;BME280;16035;53.594;9.952;2024-02-26T03:15:53;100351.91;;;3.26;78.48
28921;BME280;16035;53.594;9.952;2024-02-26T03:17:54;100348.03;;;3.22;78.46
28921;BME280;16035;53.594;9.952;2024-02-26T03:19:54;100353.59;;;3.21;78.77
28921;BME280;16035;53.594;9.952;2024-02-26T03:21:55;100343.47;;;3.23;78.26
28921;BME280;16035;53.594;9.952;2024-02-26T03:23:55;100349.72;;;3.17;78.41
28921;BME280;16035;53.594;9.952;2024-02-26T03:25:55;100347.25;;;3.15;78.55
28921;BME280;16035;53.594;9.952;2024-02-26T03:27:56;100351.81;;;3.15;78.42
28921;BME280;16035;53.594;9.952;2024-02-26T03:29:56;100356.38;;;3.14;78.57
28921;BME280;16035;53.594;9.952;2024-02-26T03:31:57;100352.88;;;3.14;78.43
28921;BME280;16035;53.594;9.952;2024-02-26T03:33:57;100352.25;;;3.12;78.71
28921;BME280;16035;53.594;9.952;2024-02-26T03:35:57;100350.84;;;3.09;78.49
28921;BME280;16035;53.594;9.952;2024-02-26T03:37:58;100353.97;;;3.06;78.53
28921;BME280;16035;53.594;9.952;2024-02-26T03:39:58;100353.56;;;3.02;78.65
28921;BME280;16035;53.594;9.952;2024-02-26T03:41:58;100363.50;;;3.02;78.65
28921;BME280;16035;53.594;9.952;2024-02-26T03:43:59;100364.53;;;3.01;78.44
28921;BME280;16035;53.594;9.952;2024-02-26T03:45:59;100363.72;;;3.00;78.70
28921;BME280;16035;53.594;9.952;2024-02-26T03:48:00;100367.00;;;3.02;78.76
28921;BME280;16035;53.594;9.952;2024-02-26T03:50:00;100361.25;;;2.99;78.58
28921;BME280;16035;53.594;9.952;2024-02-26T03:52:00;100366.84;;;2.97;78.57
28921;BME280;16035;53.594;9.952;2024-02-26T03:54:01;100372.22;;;2.97;78.58
28921;BME280;16035;53.594;9.952;2024-02-26T03:56:05;100373.25;;;2.96;78.72
28921;BME280;16035;53.594;9.952;2024-02-26T03:58:06;100383.78;;;2.98;78.28
28921;BME280;16035;53.594;9.952;2024-02-26T04:00:06;100385.03;;;2.95;78.54
28921;BME280;16035;53.594;9.952;2024-02-26T04:02:07;100387.72;;;2.95;78.56
28921;BME280;16035;53.594;9.952;2024-02-26T04:04:07;100392.88;;;2.97;78.42
28921;BME280;16035;53.594;9.952;2024-02-26T04:06:11;100393.09;;;2.95;78.76
28921;BME280;16035;53.594;9.952;2024-02-26T04:08:14;100406.53;;;2.95;78.44
28921;BME280;16035;53.594;9.952;2024-02-26T04:10:14;100413.53;;;2.96;78.76
28921;BME280;16035;53.594;9.952;2024-02-26T04:12:15;100405.69;;;2.95;78.57
28921;BME280;16035;53.594;9.952;2024-02-26T04:14:15;100395.41;;;2.92;78.88
28921;BME280;16035;53.594;9.952;2024-02-26T04:16:15;100401.59;;;2.92;78.43
28921;BME280;16035;53.594;9.952;2024-02-26T04:18:16;100411.72;;;2.90;78.72
28921;BME280;16035;53.594;9.952;2024-02-26T04:20:17;100421.19;;;2.93;78.54
28921;BME280;16035;53.594;9.952;2024-02-26T04:22:17;100412.75;;;2.89;78.67
28921;BME280;16035;53.594;9.952;2024-02-26T04:24:17;100417.28;;;2.89;78.78
28921;BME280;16035;53.594;9.952;2024-02-26T04:26:18;100432.19;;;2.85;78.70
28921;BME280;16035;53.594;9.952;2024-02-26T04:28:19;100428.91;;;2.83;78.78
28921;BME280;16035;53.594;9.952;2024-02-26T04:30:20;100435.91;;;2.84;78.75
28921;BME280;16035;53.594;9.952;2024-02-26T04:32:21;100436.34;;;2.81;78.65
28921;BME280;16035;53.594;9.952;2024-02-26T04:34:21;100434.94;;;2.78;78.71
28921;BME280;16035;53.594;9.952;2024-02-26T04:36:21;100444.84;;;2.77;78.65
28921;BME280;16035;53.594;9.952;2024-02-26T04:38:22;100443.63;;;2.73;78.67
28921;BME280;16035;53.594;9.952;2024-02-26T04:40:22;100441.78;;;2.74;79.08
28921;BME280;16035;53.594;9.952;2024-02-26T04:42:23;100443.00;;;2.71;78.85
28921;BME280;16035;53.594;9.952;2024-02-26T04:44:23;100445.50;;;2.73;78.81
28921;BME280;16035;53.594;9.952;2024-02-26T04:46:23;100448.19;;;2.73;78.70
28921;BME280;16035;53.594;9.952;2024-02-26T04:48:24;100450.88;;;2.73;79.02
28921;BME280;16035;53.594;9.952;2024-02-26T04:50:24;100454.56;;;2.72;79.00
28921;BME280;16035;53.594;9.952;2024-02-26T04:52:25;100459.13;;;2.71;78.85
28921;BME280;16035;53.594;9.952;2024-02-26T04:54:25;100451.69;;;2.73;79.06
28921;BME280;16035;53.594;9.952;2024-02-26T04:56:26;100462.41;;;2.73;78.68
28921;BME280;16035;53.594;9.952;2024-02-26T04:58:26;100456.66;;;2.70;78.83
28921;BME280;16035;53.594;9.952;2024-02-26T05:00:26;100470.06;;;2.70;79.13
28921;BME280;16035;53.594;9.952;2024-02-26T05:02:26;100468.63;;;2.67;79.13
28921;BME280;16035;53.594;9.952;2024-02-26T05:04:27;100474.81;;;2.68;79.38
28921;BME280;16035;53.594;9.952;2024-02-26T05:06:27;100467.38;;;2.70;79.10
28921;BME280;16035;53.594;9.952;2024-02-26T05:08:28;100470.88;;;2.70;78.88
28921;BME280;16035;53.594;9.952;2024-02-26T05:10:29;100483.06;;;2.73;78.69
28921;BME280;16035;53.594;9.952;2024-02-26T05:12:30;100481.63;;;2.70;78.96
28921;BME280;16035;53.594;9.952;2024-02-26T05:14:30;100481.03;;;2.68;78.76
28921;BME280;16035;53.594;9.952;2024-02-26T05:16:30;100489.28;;;2.67;78.46
28921;BME280;16035;53.594;9.952;2024-02-26T05:18:31;100487.63;;;2.66;78.83
28921;BME280;16035;53.594;9.952;2024-02-26T05:20:31;100481.69;;;2.64;78.70
28921;BME280;16035;53.594;9.952;2024-02-26T05:22:35;100484.34;;;2.64;79.31
28921;BME280;16035;53.594;9.952;2024-02-26T05:24:37;100481.28;;;2.60;79.21
28921;BME280;16035;53.594;9.952;2024-02-26T05:26:38;100483.72;;;2.62;78.97
28921;BME280;16035;53.594;9.952;2024-02-26T05:28:38;100484.78;;;2.61;78.98
28921;BME280;16035;53.594;9.952;2024-02-26T05:30:39;100484.56;;;2.62;78.95
28921;BME280;16035;53.594;9.952;2024-02-26T05:32:40;100490.97;;;2.61;79.14
28921;BME280;16035;53.594;9.952;2024-02-26T05:34:40;100496.75;;;2.58;78.97
28921;BME280;16035;53.594;9.952;2024-02-26T05:36:41;100493.25;;;2.58;79.30
28921;BME280;16035;53.594;9.952;2024-02-26T05:38:41;100500.88;;;2.61;79.36
28921;BME280;16035;53.594;9.952;2024-02-26T05:40:42;100502.50;;;2.62;79.19
28921;BME280;16035;53.594;9.952;2024-02-26T05:42:42;100508.69;;;2.62;78.80
28921;BME280;16035;53.594;9.952;2024-02-26T05:44:45;100508.50;;;2.64;78.98
28921;BME280;16035;53.594;9.952;2024-02-26T05:46:45;100508.28;;;2.65;78.85
28921;BME280;16035;53.594;9.952;2024-02-26T05:48:50;100508.69;;;2.62;78.85
28921;BME280;16035;53.594;9.952;2024-02-26T05:50:51;100514.47;;;2.66;78.59
28921;BME280;16035;53.594;9.952;2024-02-26T05:52:51;100511.78;;;2.66;79.28
28921;BME280;16035;53.594;9.952;2024-02-26T05:54:51;100514.03;;;2.69;78.89
28921;BME280;16035;53.594;9.952;2024-02-26T05:56:52;100520.81;;;2.71;79.14
28921;BME280;16035;53.594;9.952;2024-02-26T05:58:52;100517.72;;;2.74;79.10
28921;BME280;16035;53.594;9.952;2024-02-26T06:00:54;100522.88;;;2.76;79.06
28921;BME280;16035;53.594;9.952;2024-02-26T06:02:54;100522.03;;;2.75;78.93
28921;BME280;16035;53.594;9.952;2024-02-26T06:04:55;100519.38;;;2.75;79.14
28921;BME280;16035;53.594;9.952;2024-02-26T06:06:55;100527.41;;;2.75;78.88
28921;BME280;16035;53.594;9.952;2024-02-26T06:08:55;100529.28;;;2.75;79.10
28921;BME280;16035;53.594;9.952;2024-02-26T06:10:56;100545.16;;;2.76;79.13
28921;BME280;16035;53.594;9.952;2024-02-26T06:12:56;100534.00;;;2.79;79.19
28921;BME280;16035;53.594;9.952;2024-02-26T06:14:56;100530.50;;;2.79;79.40
28921;BME280;16035;53.594;9.952;2024-02-26T06:16:57;100544.31;;;2.83;79.25
28921;BME280;16035;53.594;9.952;2024-02-26T06:18:58;100551.09;;;2.85;78.95
28921;BME280;16035;53.594;9.952;2024-02-26T06:21:00;100550.06;;;2.86;79.22
28921;BME280;16035;53.594;9.952;2024-02-26T06:23:00;100550.91;;;2.87;79.21
28921;BME280;16035;53.594;9.952;2024-02-26T06:25:01;100553.97;;;2.90;79.35
28921;BME280;16035;53.594;9.952;2024-02-26T06:27:01;100551.06;;;2.92;79.11
28921;BME280;16035;53.594;9.952;2024-02-26T06:29:01;100553.53;;;2.93;79.30
28921;BME280;16035;53.594;9.952;2024-02-26T06:31:02;100550.66;;;2.95;79.22
28921;BME280;16035;53.594;9.952;2024-02-26T06:33:02;100550.19;;;2.98;79.21
28921;BME280;16035;53.594;9.952;2024-02-26T06:35:03;100557.84;;;3.01;79.23
28921;BME280;16035;53.594;9.952;2024-02-26T06:37:08;100553.06;;;3.03;79.03
28921;BME280;16035;53.594;9.952;2024-02-26T06:39:08;100558.66;;;3.01;79.45
28921;BME280;16035;53.594;9.952;2024-02-26T06:41:08;100553.88;;;3.03;79.34
28921;BME280;16035;53.594;9.952;2024-02-26T06:43:09;100555.09;;;3.08;79.45
28921;BME280;16035;53.594;9.952;2024-02-26T06:45:09;100565.84;;;3.08;79.19
28921;BME280;16035;53.594;9.952;2024-02-26T06:47:09;100553.84;;;3.10;79.44
28921;BME280;16035;53.594;9.952;2024-02-26T06:49:10;100567.03;;;3.18;79.22
28921;BME280;16035;53.594;9.952;2024-02-26T06:51:10;100565.75;;;3.21;79.21
28921;BME280;16035;53.594;9.952;2024-02-26T06:53:10;100557.91;;;3.19;79.18
28921;BME280;16035;53.594;9.952;2024-02-26T06:55:11;100568.25;;;3.16;78.96
28921;BME280;16035;53.594;9.952;2024-02-26T06:57:11;100568.88;;;3.18;79.58
28921;BME280;16035;53.594;9.952;2024-02-26T06:59:11;100569.88;;;3.23;79.54
28921;BME280;16035;53.594;9.952;2024-02-26T07:01:12;100574.16;;;3.31;79.48
28921;BME280;16035;53.594;9.952;2024-02-26T07:03:12;100576.19;;;3.36;79.53
28921;BME280;16035;53.594;9.952;2024-02-26T07:05:14;100582.56;;;3.41;79.49
28921;BME280;16035;53.594;9.952;2024-02-26T07:07:14;100580.09;;;3.40;79.83
28921;BME280;16035;53.594;9.952;2024-02-26T07:09:14;100586.88;;;3.42;79.61
28921;BME280;16035;53.594;9.952;2024-02-26T07:11:16;100589.16;;;3.45;79.73
28921;BME280;16035;53.594;9.952;2024-02-26T07:13:16;100580.44;;;3.50;79.58
28921;BME280;16035;53.594;9.952;2024-02-26T07:15:16;100583.88;;;3.57;79.71
28921;BME280;16035;53.594;9.952;2024-02-26T07:17:17;100584.72;;;3.58;79.33
28921;BME280;16035;53.594;9.952;2024-02-26T07:19:17;100586.78;;;3.55;79.72
28921;BME280;16035;53.594;9.952;2024-02-26T07:21:17;100590.09;;;3.58;79.74
28921;BME280;16035;53.594;9.952;2024-02-26T07:23:17;100591.31;;;3.62;79.49
28921;BME280;16035;53.594;9.952;2024-02-26T07:25:18;100586.09;;;3.67;79.51
28921;BME280;16035;53.594;9.952;2024-02-26T07:27:18;100588.56;;;3.68;79.47
28921;BME280;16035;53.594;9.952;2024-02-26T07:29:19;100590.66;;;3.66;79.45
28921;BME280;16035;53.594;9.952;2024-02-26T07:31:19;100594.59;;;3.64;79.83
28921;BME280;16035;53.594;9.952;2024-02-26T07:33:19;100594.75;;;3.69;79.72
28921;BME280;16035;53.594;9.952;2024-02-26T07:35:20;100595.91;;;3.79;79.96
28921;BME280;16035;53.594;9.952;2024-02-26T07:37:20;100601.66;;;3.83;79.86
28921;BME280;16035;53.594;9.952;2024-02-26T07:39:20;100601.06;;;3.81;79.53
28921;BME280;16035;53.594;9.952;2024-02-26T07:41:21;100614.34;;;3.76;80.08
28921;BME280;16035;53.594;9.952;2024-02-26T07:43:21;100616.75;;;3.84;79.71
28921;BME280;16035;53.594;9.952;2024-02-26T07:45:21;100615.72;;;3.85;79.89
28921;BME280;16035;53.594;9.952;2024-02-26T07:47:22;100623.72;;;3.92;79.46
28921;BME280;16035;53.594;9.952;2024-02-26T07:49:23;100624.47;;;3.99;79.98
28921;BME280;16035;53.594;9.952;2024-02-26T07:51:23;100624.25;;;4.00;79.87
28921;BME280;16035;53.594;9.952;2024-02-26T07:53:23;100627.56;;;4.02;79.52
28921;BME280;16035;53.594;9.952;2024-02-26T07:55:24;100633.97;;;4.01;79.90
28921;BME280;16035;53.594;9.952;2024-02-26T07:57:24;100634.16;;;4.07;79.74
28921;BME280;16035;53.594;9.952;2024-02-26T07:59:24;100645.06;;;4.12;79.30
28921;BME280;16035;53.594;9.952;2024-02-26T08:01:25;100643.94;;;4.19;80.06
28921;BME280;16035;53.594;9.952;2024-02-26T08:03:26;100642.84;;;4.27;79.50
28921;BME280;16035;53.594;9.952;2024-02-26T08:05:27;100647.34;;;4.33;79.50
28921;BME280;16035;53.594;9.952;2024-02-26T08:07:27;100648.53;;;4.37;79.39
28921;BME280;16035;53.594;9.952;2024-02-26T08:09:28;100647.03;;;4.41;79.93
28921;BME280;16035;53.594;9.952;2024-02-26T08:11:28;100650.34;;;4.43;79.76
28921;BME280;16035;53.594;9.952;2024-02-26T08:13:29;100648.84;;;4.47;79.79
28921;BME280;16035;53.594;9.952;2024-02-26T08:15:29;100648.47;;;4.44;79.35
28921;BME280;16035;53.594;9.952;2024-02-26T08:17:29;100652.81;;;4.45;79.99
28921;BME280;16035;53.594;9.952;2024-02-26T08:19:30;100654.00;;;4.49;79.66
28921;BME280;16035;53.594;9.952;2024-02-26T08:21:30;100661.16;;;4.55;79.40
28921;BME280;16035;53.594;9.952;2024-02-26T08:23:30;100655.59;;;4.56;79.51
28921;BME280;16035;53.594;9.952;2024-02-26T08:25:31;100659.34;;;4.55;80.22
28921;BME280;16035;53.594;9.952;2024-02-26T08:27:32;100665.53;;;4.56;80.05
28921;BME280;16035;53.594;9.952;2024-02-26T08:29:32;100667.56;;;4.61;79.81
28921;BME280;16035;53.594;9.952;2024-02-26T08:31:33;100662.59;;;4.57;79.05
28921;BME280;16035;53.594;9.952;2024-02-26T08:33:33;100658.28;;;4.56;79.57
28921;BME280;16035;53.594;9.952;2024-02-26T08:35:36;100663.19;;;4.60;79.57
28921;BME280;16035;53.594;9.952;2024-02-26T08:37:36;100666.13;;;4.58;79.63
28921;BME280;16035;53.594;9.952;2024-02-26T08:39:36;100671.34;;;4.53;78.92
28921;BME280;16035;53.594;9.952;2024-02-26T08:41:37;100672.16;;;4.53;79.42
28921;BME280;16035;53.594;9.952;2024-02-26T08:43:37;100669.78;;;4.64;79.97
28921;BME280;16035;53.594;9.952;2024-02-26T08:45:37;100680.34;;;4.65;79.71
28921;BME280;16035;53.594;9.952;2024-02-26T08:47:38;100678.63;;;4.71;79.58
28921;BME280;16035;53.594;9.952;2024-02-26T08:49:43;100679.00;;;4.74;79.40
28921;BME280;16035;53.594;9.952;2024-02-26T08:51:44;100681.59;;;4.81;79.72
28921;BME280;16035;53.594;9.952;2024-02-26T08:53:45;100680.72;;;4.87;79.48
28921;BME280;16035;53.594;9.952;2024-02-26T08:55:45;100683.94;;;4.96;79.73
28921;BME280;16035;53.594;9.952;2024-02-26T08:57:47;100681.59;;;4.99;79.30
28921;BME280;16035;53.594;9.952;2024-02-26T08:59:47;100682.34;;;5.06;79.14
28921;BME280;16035;53.594;9.952;2024-02-26T09:01:47;100684.75;;;5.15;79.26
28921;BME280;16035;53.594;9.952;2024-02-26T09:03:48;100684.25;;;5.18;79.58
28921;BME280;16035;53.594;9.952;2024-02-26T09:05:48;100685.94;;;5.19;79.30
28921;BME280;16035;53.594;9.952;2024-02-26T09:07:49;100679.38;;;5.26;79.28
28921;BME280;16035;53.594;9.952;2024-02-26T09:09:49;100684.25;;;5.36;79.22
28921;BME280;16035;53.594;9.952;2024-02-26T09:11:49;100684.41;;;5.41;79.34
28921;BME280;16035;53.594;9.952;2024-02-26T09:13:52;100690.28;;;5.50;79.51
28921;BME280;16035;53.594;9.952;2024-02-26T09:15:52;100691.81;;;5.57;79.08
28921;BME280;16035;53.594;9.952;2024-02-26T09:17:52;100700.06;;;5.63;78.51
28921;BME280;16035;53.594;9.952;2024-02-26T09:19:53;100696.88;;;5.66;79.08
28921;BME280;16035;53.594;9.952;2024-02-26T09:21:54;100698.34;;;5.80;79.21
28921;BME280;16035;53.594;9.952;2024-02-26T09:23:58;100704.00;;;5.90;79.34
28921;BME280;16035;53.594;9.952;2024-02-26T09:25:58;100698.16;;;5.93;78.32
28921;BME280;16035;53.594;9.952;2024-02-26T09:27:59;100698.31;;;5.98;79.14
28921;BME280;16035;53.594;9.952;2024-02-26T09:29:59;100700.06;;;6.04;78.54
28921;BME280;16035;53.594;9.952;2024-02-26T09:32:00;100700.69;;;6.18;78.89
28921;BME280;16035;53.594;9.952;2024-02-26T09:34:00;100699.75;;;6.24;78.70
28921;BME280;16035;53.594;9.952;2024-02-26T09:36:01;100711.00;;;6.33;78.50
28921;BME280;16035;53.594;9.952;2024-02-26T09:38:02;100710.66;;;6.41;78.17
28921;BME280;16035;53.594;9.952;2024-02-26T09:40:03;100711.03;;;6.45;78.17
28921;BME280;16035;53.594;9.952;2024-02-26T09:42:04;100710.91;;;6.51;78.57
28921;BME280;16035;53.594;9.952;2024-02-26T09:44:06;100711.63;;;6.58;77.98
28921;BME280;16035;53.594;9.952;2024-02-26T09:46:08;100713.16;;;6.66;78.25
28921;BME280;16035;53.594;9.952;2024-02-26T09:48:09;100711.38;;;6.60;77.72
28921;BME280;16035;53.594;9.952;2024-02-26T09:50:11;100712.31;;;6.54;77.88
28921;BME280;16035;53.594;9.952;2024-02-26T09:52:15;100720.75;;;6.46;77.76
28921;BME280;16035;53.594;9.952;2024-02-26T09:54:16;100721.59;;;6.46;78.48
28921;BME280;16035;53.594;9.952;2024-02-26T09:56:16;100723.81;;;6.49;78.17
28921;BME280;16035;53.594;9.952;2024-02-26T09:58:18;100721.94;;;6.50;78.26
28921;BME280;16035;53.594;9.952;2024-02-26T10:00:20;100729.22;;;6.49;77.84
28921;BME280;16035;53.594;9.952;2024-02-26T10:02:21;100726.28;;;6.51;77.78
28921;BME280;16035;53.594;9.952;2024-02-26T10:04:23;100719.59;;;6.53;78.10
28921;BME280;16035;53.594;9.952;2024-02-26T10:06:25;100730.16;;;6.55;77.94
28921;BME280;16035;53.594;9.952;2024-02-26T10:08:26;100721.25;;;6.54;78.11
28921;BME280;16035;53.594;9.952;2024-02-26T10:10:29;100732.16;;;6.71;77.95
28921;BME280;16035;53.594;9.952;2024-02-26T10:12:29;100731.19;;;6.77;77.83
28921;BME280;16035;53.594;9.952;2024-02-26T10:14:31;100726.88;;;6.76;77.52
28921;BME280;16035;53.594;9.952;2024-02-26T10:16:32;100735.09;;;6.70;77.17
28921;BME280;16035;53.594;9.952;2024-02-26T10:21:01;100732.50;;;6.51;77.13
28921;BME280;16035;53.594;9.952;2024-02-26T10:23:03;100733.34;;;6.52;78.31
28921;BME280;16035;53.594;9.952;2024-02-26T10:25:04;100736.47;;;6.61;77.87
28921;BME280;16035;53.594;9.952;2024-02-26T10:27:04;100738.38;;;6.72;78.29
28921;BME280;16035;53.594;9.952;2024-02-26T10:29:05;100742.81;;;6.78;77.68
28921;BME280;16035;53.594;9.952;2024-02-26T10:31:05;100739.88;;;6.91;77.90
28921;BME280;16035;53.594;9.952;2024-02-26T10:33:07;100741.28;;;7.05;77.44
28921;BME280;16035;53.594;9.952;2024-02-26T10:35:08;100740.09;;;7.13;77.20
28921;BME280;16035;53.594;9.952;2024-02-26T10:37:09;100740.69;;;7.15;77.25
28921;BME280;16035;53.594;9.952;2024-02-26T10:39:12;100739.34;;;7.29;77.42
28921;BME280;16035;53.594;9.952;2024-02-26T10:41:15;100745.22;;;7.38;76.98